Time;durP1;ratioP1;P1;durP2;ratioP2;P2;SDS_P1;SDS_P2;PMS_P1;PMS_P2;Temp;Humidity;BMP_temperature;BMP_pressure;BME280_temperature;BME280_humidity;BME280_pressure;Samples;Min_cycle;Max_cycle;Signal;HPM_P1;HPM_P2
2022/11/12 06:53:38;;;;;;;;;;;20.50;92.30;;;;;;5423303;22;20067;-81
2022/11/12 06:56:06;;;;;;;;;;;20.40;91.80;;;;;;5015914;28;19937;-78
2022/11/12 06:58:33;;;;;;;;;;;20.40;91.60;;;;;;5013772;28;19925;-77
2022/11/12 07:01:04;;;;;;;;;;;20.30;91.50;;;;;;5013740;28;19925;-77
2022/11/12 07:03:30;;;;;;;;;;;20.30;91.40;;;;;;5013589;28;19933;-77
2022/11/12 07:05:57;;;;;;;;;;;20.30;91.30;;;;;;5017517;28;19925;-78
2022/11/12 07:08:23;;;;;;;;;;;20.30;91.20;;;;;;5021149;28;20300;-79
2022/11/12 07:10:55;;;;;;;;;;;20.20;91.00;;;;;;5021530;28;19925;-80
2022/11/12 07:13:21;;;;;;;;;;;20.30;91.30;;;;;;5021165;28;19925;-79
2022/11/12 07:15:48;;;;;;;;;;;20.30;90.80;;;;;;5020134;28;20389;-79
2022/11/12 07:18:14;;;;;;;;;;;20.30;90.60;;;;;;5018044;28;19948;-79
2022/11/12 07:20:41;;;;;;;;;;;20.30;90.50;;;;;;5020544;28;19925;-81
2022/11/12 07:23:07;;;;;;;;;;;20.30;90.50;;;;;;5018874;28;20377;-78
2022/11/12 07:25:34;;;;;;;;;;;20.40;90.50;;;;;;5019606;28;19949;-79
2022/11/12 07:28:02;;;;;;;;;;;20.40;90.50;;;;;;5022737;28;19925;-80
2022/11/12 07:30:28;;;;;;;;;;;20.40;90.50;;;;;;5021301;28;19926;-81
2022/11/12 07:32:57;;;;;;;;;;;20.40;90.40;;;;;;5025206;28;19936;-82
2022/11/12 07:35:24;;;;;;;;;;;20.40;90.30;;;;;;5021198;28;19925;-80
2022/11/12 07:37:50;;;;;;;;;;;20.40;90.30;;;;;;5022111;28;20369;-79
2022/11/12 07:40:17;;;;;;;;;;;20.40;90.20;;;;;;5025954;28;19926;-81
2022/11/12 07:42:44;;;;;;;;;;;20.40;90.20;;;;;;5021295;28;20385;-78
2022/11/12 07:45:12;;;;;;;;;;;20.40;90.20;;;;;;5018936;28;19932;-78
2022/11/12 07:47:38;;;;;;;;;;;20.50;90.20;;;;;;5018832;28;19925;-77
2022/11/12 07:50:05;;;;;;;;;;;20.40;90.10;;;;;;5018422;28;19932;-78
2022/11/12 07:52:32;;;;;;;;;;;20.50;90.10;;;;;;5020983;28;19933;-79
2022/11/12 07:54:58;;;;;;;;;;;20.50;90.10;;;;;;5022169;28;20392;-81
2022/11/12 07:57:25;;;;;;;;;;;20.50;90.50;;;;;;5024357;28;19940;-81
2022/11/12 07:59:51;;;;;;;;;;;20.50;90.20;;;;;;5022254;28;19926;-82
2022/11/12 20:15:01;;;;;;;;;;;20.30;74.00;;;;;;5305275;23;19933;-81
2022/11/12 20:17:31;;;;;;;;;;;20.30;74.00;;;;;;4979232;28;19926;-82
2022/11/12 20:19:57;;;;;;;;;;;20.30;74.00;;;;;;4978863;28;19933;-83
2022/11/12 20:22:24;;;;;;;;;;;20.20;74.00;;;;;;4979844;28;19926;-83
2022/11/12 20:24:50;;;;;;;;;;;20.30;74.00;;;;;;4977760;28;19933;-86
2022/11/12 20:27:17;;;;;;;;;;;20.30;74.00;;;;;;4979221;28;19933;-80
2022/11/12 20:29:43;;;;;;;;;;;20.20;74.00;;;;;;4977562;28;19933;-84
2022/11/12 20:32:11;;;;;;;;;;;20.40;74.10;;;;;;4976741;28;20289;-83
2022/11/12 20:34:38;;;;;;;;;;;20.40;74.10;;;;;;4976693;28;19933;-84
2022/11/12 20:37:05;;;;;;;;;;;20.40;74.10;;;;;;4977220;28;19926;-80
2022/11/12 20:39:32;;;;;;;;;;;20.30;74.00;;;;;;4979124;28;19926;-80
2022/11/12 20:41:59;;;;;;;;;;;20.40;74.10;;;;;;4977958;28;19950;-80
2022/11/12 20:44:26;;;;;;;;;;;20.40;74.10;;;;;;4977969;28;19933;-80
2022/11/12 20:46:53;;;;;;;;;;;20.40;74.20;;;;;;4977090;28;19926;-80
2022/11/12 20:49:20;;;;;;;;;;;20.40;75.00;;;;;;4977071;28;19926;-80
2022/11/12 20:51:47;;;;;;;;;;;20.40;74.20;;;;;;4977141;28;19926;-80
2022/11/12 20:54:14;;;;;;;;;;;20.40;74.30;;;;;;4976716;28;20385;-80
2022/11/12 20:56:41;;;;;;;;;;;20.40;74.30;;;;;;4977057;28;20028;-80
2022/11/12 20:59:08;;;;;;;;;;;20.40;74.40;;;;;;4977033;28;19933;-80
2022/11/12 21:01:34;;;;;;;;;;;20.40;74.50;;;;;;4977402;28;19949;-80
2022/11/12 21:04:01;;;;;;;;;;;20.40;74.50;;;;;;4976348;28;19934;-80
2022/11/12 21:06:29;;;;;;;;;;;20.40;74.60;;;;;;4976858;28;19948;-80
2022/11/12 21:08:57;;;;;;;;;;;20.40;74.70;;;;;;4976696;28;19929;-80
2022/11/12 21:11:24;;;;;;;;;;;20.40;74.80;;;;;;4976750;28;19933;-80
2022/11/12 21:13:50;;;;;;;;;;;20.40;75.50;;;;;;4976724;28;20309;-80
2022/11/12 21:16:17;;;;;;;;;;;20.30;74.70;;;;;;4976471;28;19933;-80
2022/11/12 21:18:44;;;;;;;;;;;20.40;75.00;;;;;;4976677;28;19926;-80
2022/11/12 21:21:11;;;;;;;;;;;20.40;75.00;;;;;;4976915;28;19930;-80
2022/11/12 21:23:42;;;;;;;;;;;20.40;75.00;;;;;;4977080;28;19929;-81
2022/11/12 21:26:11;;;;;;;;;;;20.30;75.10;;;;;;4976164;28;19926;-81
2022/11/12 21:28:38;;;;;;;;;;;20.40;75.30;;;;;;4976715;28;19933;-80
2022/11/12 21:31:05;;;;;;;;;;;20.40;75.30;;;;;;4976108;28;19926;-80
2022/11/12 21:33:32;;;;;;;;;;;20.40;75.40;;;;;;4976162;28;19930;-81
2022/11/12 21:35:58;;;;;;;;;;;20.40;75.40;;;;;;4981018;28;19933;-81
2022/11/12 21:38:25;;;;;;;;;;;19.60;74.70;;;;;;4981937;28;19926;-82
2022/11/12 21:41:00;;;;;;;;;;;20.30;75.50;;;;;;4980318;28;20283;-82
2022/11/12 21:43:26;;;;;;;;;;;20.40;75.70;;;;;;4982525;28;19933;-82
2022/11/12 21:45:53;;;;;;;;;;;20.40;75.80;;;;;;4981240;28;19933;-82
2022/11/12 21:48:19;;;;;;;;;;;20.40;75.90;;;;;;4976937;28;19926;-79
2022/11/12 21:50:46;;;;;;;;;;;20.40;76.00;;;;;;4975776;28;19933;-76
2022/11/12 21:53:13;;;;;;;;;;;20.40;76.10;;;;;;4975320;28;19926;-76
2022/11/12 21:55:40;;;;;;;;;;;20.40;76.20;;;;;;4975236;28;20007;-76
2022/11/12 21:58:08;;;;;;;;;;;20.40;76.30;;;;;;4975182;28;19926;-75
2022/11/12 22:00:34;;;;;;;;;;;20.40;76.40;;;;;;4975225;28;19933;-75
2022/11/12 22:03:01;;;;;;;;;;;20.40;77.20;;;;;;4975230;28;20139;-75
2022/11/12 22:05:28;;;;;;;;;;;20.40;76.60;;;;;;4975072;28;19933;-75
2022/11/12 22:07:54;;;;;;;;;;;20.40;76.70;;;;;;4975165;28;19926;-75
2022/11/12 22:10:21;;;;;;;;;;;20.40;76.80;;;;;;4975136;28;19926;-75
2022/11/12 22:12:47;;;;;;;;;;;20.40;76.80;;;;;;4975067;28;19926;-75
2022/11/12 22:15:15;;;;;;;;;;;20.40;76.90;;;;;;4974736;28;19932;-75
2022/11/12 22:17:42;;;;;;;;;;;20.40;77.00;;;;;;4974893;28;20400;-75
2022/11/12 22:20:09;;;;;;;;;;;20.40;77.10;;;;;;4974790;28;19926;-75
2022/11/12 22:22:35;;;;;;;;;;;20.40;77.20;;;;;;4974748;28;19926;-75
2022/11/12 22:25:02;;;;;;;;;;;20.40;77.30;;;;;;4974888;28;20385;-75
2022/11/12 22:27:30;;;;;;;;;;;20.40;77.40;;;;;;4975038;28;19926;-75
2022/11/12 22:29:56;;;;;;;;;;;20.40;77.50;;;;;;4974905;28;19973;-75
2022/11/12 22:32:24;;;;;;;;;;;20.40;77.60;;;;;;4975217;28;19934;-75
2022/11/12 22:34:51;;;;;;;;;;;20.40;77.70;;;;;;4974868;28;19926;-75
2022/11/12 22:37:17;;;;;;;;;;;20.40;77.90;;;;;;4978128;28;19926;-74
2022/11/12 22:39:44;;;;;;;;;;;20.40;77.90;;;;;;4978661;28;19933;-75
2022/11/12 22:42:11;;;;;;;;;;;20.40;78.00;;;;;;4978339;28;20409;-75
2022/11/12 22:44:37;;;;;;;;;;;20.40;78.10;;;;;;4978497;28;19932;-75
2022/11/12 22:47:04;;;;;;;;;;;20.40;78.20;;;;;;4978592;28;19934;-75
2022/11/12 22:49:32;;;;;;;;;;;20.40;79.00;;;;;;4978516;28;19933;-74
2022/11/12 22:51:58;;;;;;;;;;;20.40;78.40;;;;;;4978083;28;19977;-74
2022/11/12 22:54:25;;;;;;;;;;;20.40;78.50;;;;;;4978019;28;19926;-75
2022/11/12 22:56:51;;;;;;;;;;;20.40;78.60;;;;;;4978061;28;20381;-75
2022/11/12 22:59:18;;;;;;;;;;;20.40;78.70;;;;;;4978004;28;20382;-75
2022/11/12 23:01:44;;;;;;;;;;;20.40;78.90;;;;;;4978275;28;19926;-75
2022/11/12 23:04:11;;;;;;;;;;;20.40;78.90;;;;;;4978093;28;20396;-75
2022/11/12 23:06:39;;;;;;;;;;;20.40;79.00;;;;;;4977891;28;20302;-75
2022/11/12 23:09:05;;;;;;;;;;;20.40;79.20;;;;;;4978121;28;19942;-75
2022/11/12 23:11:32;;;;;;;;;;;20.40;79.30;;;;;;4978272;28;20100;-75
2022/11/12 23:13:59;;;;;;;;;;;20.40;79.40;;;;;;4978275;28;19932;-75
2022/11/12 23:16:28;;;;;;;;;;;20.40;79.50;;;;;;4977874;28;19926;-74
2022/11/12 23:18:54;;;;;;;;;;;20.40;79.70;;;;;;4977646;28;20300;-74
2022/11/12 23:21:22;;;;;;;;;;;20.40;79.90;;;;;;4978039;28;20500;-74
2022/11/12 23:23:50;;;;;;;;;;;20.40;79.90;;;;;;4977855;28;20021;-74
2022/11/12 23:26:17;;;;;;;;;;;20.40;80.00;;;;;;4977527;28;20382;-74
2022/11/12 23:28:44;;;;;;;;;;;20.40;79.90;;;;;;4977497;28;19926;-75
2022/11/12 23:31:11;;;;;;;;;;;20.40;80.60;;;;;;4977689;28;19926;-75
2022/11/12 23:33:38;;;;;;;;;;;20.40;79.90;;;;;;4977591;28;19934;-75
2022/11/12 23:36:05;;;;;;;;;;;20.40;79.90;;;;;;4977697;28;19933;-75
2022/11/12 23:38:32;;;;;;;;;;;20.40;79.90;;;;;;4977637;28;19926;-76
2022/11/12 23:41:00;;;;;;;;;;;20.40;79.90;;;;;;4977543;28;20333;-75
2022/11/12 23:43:27;;;;;;;;;;;20.40;80.00;;;;;;4977496;28;19926;-75
2022/11/12 23:45:54;;;;;;;;;;;20.40;80.20;;;;;;4977499;28;20017;-75
2022/11/12 23:48:21;;;;;;;;;;;20.40;80.40;;;;;;4976785;28;19926;-75
2022/11/12 23:50:48;;;;;;;;;;;20.40;80.50;;;;;;4977335;28;19949;-76
2022/11/12 23:53:15;;;;;;;;;;;20.40;80.60;;;;;;4977385;28;19933;-76
2022/11/12 23:55:42;;;;;;;;;;;20.40;80.70;;;;;;4976944;28;19926;-76
2022/11/12 23:58:10;;;;;;;;;;;20.40;80.80;;;;;;4976993;28;19934;-76
